Terminal Aerodrome Forecast
Issued by NWS Grand Rapids, MI

Home | Current Version | Previous Version | Text Only | Print | Product List | Glossary On
Versions: 1 2 3 4 5 6 7 8 9 10 11 12 13 14 15 16 17 18 19 20 21 22 23 24 25 26 27 28
000
FTUS43 KGRR 231425 AAB
TAFGRR
TAF AMD
KGRR 231425Z 2314/2412 26016G26KT P6SM -SN OVC011
     FM231600 28015G25KT 5SM -SN BR OVC010
     FM231700 29015G25KT 2SM -SHSN OVC010
     FM231900 30014KT P6SM OVC025
     FM240300 30010KT P6SM OVC025=

USA.gov is the U.S. government's official web portal to all federal, state and local government web resources and services.